Time;durP1;ratioP1;P1;durP2;ratioP2;P2;SDS_P1;SDS_P2;PMS_P1;PMS_P2;Temp;Humidity;BMP_temperature;BMP_pressure;BME280_temperature;BME280_humidity;BME280_pressure;Samples;Min_cycle;Max_cycle;Signal;HPM_P1;HPM_P2
2023/06/22 00:00:51;;;;;;;32.38;20.65;;;18.10;99.90;;;;;;5136448;27;20039;-70
2023/06/22 00:03:19;;;;;;;33.25;19.33;;;18.00;99.90;;;;;;5118951;27;20047;-69
2023/06/22 00:05:46;;;;;;;33.88;21.48;;;18.00;99.90;;;;;;5136404;27;20047;-71
2023/06/22 00:08:11;;;;;;;33.63;21.17;;;18.00;99.90;;;;;;5136586;27;20058;-70
2023/06/22 00:10:37;;;;;;;34.03;22.40;;;18.00;99.90;;;;;;5136352;27;20136;-70
2023/06/22 00:13:03;;;;;;;34.87;22.00;;;18.00;99.90;;;;;;5136134;27;20085;-69
2023/06/22 00:15:29;;;;;;;39.15;21.92;;;18.00;99.90;;;;;;5117509;27;20044;-69
2023/06/22 00:17:57;;;;;;;37.00;21.93;;;17.90;99.90;;;;;;5136009;27;20047;-69
2023/06/22 00:20:27;;;;;;;34.70;21.42;;;17.90;99.90;;;;;;5117811;27;20061;-70
2023/06/22 00:22:56;;;;;;;34.42;21.58;;;17.90;99.90;;;;;;5101622;27;20046;-71
2023/06/22 00:25:22;;;;;;;36.72;22.23;;;17.90;99.90;;;;;;5135730;27;20050;-73
2023/06/22 00:27:48;;;;;;;37.13;22.93;;;17.90;99.90;;;;;;5117142;27;20376;-70
2023/06/22 00:30:16;;;;;;;36.67;22.90;;;17.90;99.90;;;;;;5136080;27;20054;-70
2023/06/22 00:32:42;;;;;;;37.97;23.15;;;17.90;99.90;;;;;;5100356;27;20721;-70
2023/06/22 00:35:09;;;;;;;41.33;23.98;;;17.90;99.90;;;;;;5135501;27;20047;-69
2023/06/22 00:37:36;;;;;;;37.05;23.60;;;17.90;99.90;;;;;;5135475;27;20099;-69
2023/06/22 00:40:03;;;;;;;39.10;24.90;;;17.90;99.90;;;;;;5117456;27;20051;-70
2023/06/22 00:42:29;;;;;;;38.25;23.98;;;17.90;99.90;;;;;;5135593;27;20047;-70
2023/06/22 00:44:55;;;;;;;37.27;24.53;;;17.90;99.90;;;;;;5135423;27;20069;-71
2023/06/22 00:47:21;;;;;;;38.70;24.87;;;17.80;99.90;;;;;;5136504;27;20185;-71
2023/06/22 00:49:51;;;;;;;41.45;25.10;;;17.80;99.90;;;;;;5116945;27;20046;-70
2023/06/22 00:52:20;;;;;;;40.50;25.25;;;17.80;99.90;;;;;;5116778;27;20538;-70
2023/06/22 00:54:51;;;;;;;37.30;24.25;;;17.80;99.90;;;;;;5117259;27;20444;-70
2023/06/22 00:57:18;;;;;;;47.15;27.98;;;17.80;99.90;;;;;;5117185;27;20058;-70
2023/06/22 00:59:45;;;;;;;49.30;29.75;;;17.80;99.90;;;;;;5135701;27;20060;-70
2023/06/22 01:02:11;;;;;;;;;;;17.70;99.90;;;;;;5135237;27;20150;-70
2023/06/22 01:04:38;;;;;;;49.05;29.38;;;17.60;99.90;;;;;;5116917;27;20280;-71
2023/06/22 01:07:31;;;;;;;45.75;28.52;;;17.60;99.90;;;;;;5134384;27;20046;-72
2023/06/22 01:10:17;;;;;;;47.13;30.38;;;17.50;99.90;;;;;;5100278;27;20375;-71
2023/06/22 01:12:48;;;;;;;49.30;29.90;;;17.40;99.90;;;;;;5115701;27;20047;-70
2023/06/22 01:15:33;;;;;;;49.42;31.23;;;17.40;99.90;;;;;;5134914;27;20053;-70
2023/06/22 01:18:00;;;;;;;50.72;31.42;;;17.40;99.90;;;;;;5117492;27;20047;-71
2023/06/22 01:20:29;;;;;;;55.95;31.67;;;17.30;99.90;;;;;;5116421;27;20050;-69
2023/06/22 01:23:10;;;;;;;54.95;30.75;;;17.30;99.90;;;;;;5134745;27;20042;-70
2023/06/22 01:25:44;;;;;;;51.22;31.70;;;17.20;99.90;;;;;;5117314;27;20133;-69
2023/06/22 01:28:35;;;;;;;52.10;30.40;;;17.20;99.90;;;;;;5116854;27;20046;-70
2023/06/22 01:31:05;;;;;;;55.28;32.28;;;17.20;99.90;;;;;;5116487;27;20038;-71
2023/06/22 01:33:34;;;;;;;52.05;31.60;;;17.10;99.90;;;;;;5134572;27;20042;-70
2023/06/22 01:36:01;;;;;;;55.95;34.83;;;17.10;99.90;;;;;;5134688;27;20070;-70
2023/06/22 01:38:29;;;;;;;53.03;32.97;;;17.10;99.90;;;;;;5134095;27;20047;-70
2023/06/22 01:40:56;;;;;;;52.15;31.55;;;17.00;99.90;;;;;;5116462;27;20119;-71
2023/06/22 01:43:23;;;;;;;52.35;31.20;;;17.00;99.90;;;;;;5116254;27;20099;-70
2023/06/22 01:45:50;;;;;;;56.17;32.70;;;17.00;99.90;;;;;;5134391;27;20035;-70
2023/06/22 01:48:17;;;;;;;50.67;30.70;;;17.00;99.90;;;;;;5134332;27;20047;-71
2023/06/22 01:50:43;;;;;;;52.20;30.85;;;17.00;99.90;;;;;;5099615;28;20047;-71
2023/06/22 01:53:09;;;;;;;53.90;31.67;;;16.90;99.90;;;;;;5134927;27;20121;-69
2023/06/22 01:55:35;;;;;;;54.47;32.20;;;17.00;99.90;;;;;;5116186;28;20043;-69
2023/06/22 01:58:00;;;;;;;55.83;31.07;;;17.00;99.90;;;;;;5134479;28;20692;-69
2023/06/22 02:00:31;;;;;;;59.40;33.90;;;16.90;99.90;;;;;;5134482;28;20103;-69
2023/06/22 02:03:10;;;;;;;58.15;32.75;;;16.90;99.90;;;;;;5112050;28;20048;-72
2023/06/22 02:05:45;;;;;;;63.28;33.85;;;16.80;99.90;;;;;;5113929;28;20049;-70
2023/06/22 02:08:45;;;;;;;54.42;32.83;;;16.80;99.90;;;;;;5112116;28;20079;-77
2023/06/22 02:11:13;;;;;;;59.22;31.95;;;16.70;99.90;;;;;;5097870;28;20113;-70
2023/06/22 02:13:42;;;;;;;56.60;31.70;;;16.70;99.90;;;;;;5113232;28;20047;-70
2023/06/22 02:16:10;;;;;;;52.63;31.50;;;16.70;99.90;;;;;;5113892;28;20187;-70
2023/06/22 02:18:36;;;;;;;53.28;32.50;;;16.70;99.90;;;;;;5113576;28;20050;-70
2023/06/22 02:21:03;;;;;;;50.45;31.35;;;16.70;99.90;;;;;;5113319;28;20538;-69
2023/06/22 02:23:28;;;;;;;56.15;30.13;;;16.60;99.90;;;;;;5112405;28;20048;-70
2023/06/22 02:25:54;;;;;;;56.60;32.43;;;16.60;99.90;;;;;;5112604;28;20096;-71
2023/06/22 02:28:20;;;;;;;56.80;34.10;;;16.60;99.90;;;;;;5112103;28;20088;-69
2023/06/22 02:30:46;;;;;;;58.70;32.93;;;16.60;99.90;;;;;;5079683;28;20126;-70
2023/06/22 02:33:11;;;;;;;52.25;32.15;;;16.60;99.90;;;;;;5112371;28;20044;-70
2023/06/22 02:35:37;;;;;;;53.07;32.10;;;16.50;99.90;;;;;;5113439;28;20048;-70
2023/06/22 02:38:04;;;;;;;50.70;30.27;;;16.50;99.90;;;;;;5112428;28;20384;-70
2023/06/22 02:40:30;;;;;;;53.22;30.80;;;16.50;99.90;;;;;;5113213;28;20051;-69
2023/06/22 02:43:01;;;;;;;53.50;31.77;;;16.50;99.90;;;;;;5113705;28;20540;-69
2023/06/22 02:45:27;;;;;;;56.42;31.50;;;16.60;99.90;;;;;;5114019;28;20118;-70
2023/06/22 02:47:53;;;;;;;50.10;29.60;;;16.50;99.90;;;;;;5113378;28;20135;-70
2023/06/22 02:55:29;;;;;;;49.63;30.40;;;16.60;99.90;;;;;;5284647;22;20076;-71
2023/06/22 02:57:57;;;;;;;53.63;33.20;;;16.60;99.90;;;;;;4999167;28;20042;-71
2023/06/22 03:00:23;;;;;;;56.85;34.25;;;16.60;99.90;;;;;;4998902;28;20500;-71
2023/06/22 03:02:49;;;;;;;58.73;33.47;;;16.60;99.90;;;;;;5017118;28;20088;-70
2023/06/22 03:05:17;;;;;;;54.78;33.50;;;16.50;99.90;;;;;;5016654;28;20073;-70
2023/06/22 03:07:44;;;;;;;61.85;34.70;;;16.40;99.90;;;;;;5017326;28;20342;-70
2023/06/22 03:10:11;;;;;;;;;;;16.40;99.90;;;;;;5016968;28;20056;-71
2023/06/22 03:12:40;;;;;;;59.17;35.20;;;16.40;99.90;;;;;;4998854;28;20380;-71
2023/06/22 03:15:08;;;;;;;58.78;32.42;;;16.40;99.90;;;;;;5016092;28;20485;-70
2023/06/22 03:17:35;;;;;;;62.17;35.08;;;16.30;99.90;;;;;;5016450;28;20074;-71
2023/06/22 03:20:09;;;;;;;60.65;33.97;;;16.30;99.90;;;;;;4999816;28;20073;-70
2023/06/22 03:22:44;;;;;;;59.90;34.42;;;16.30;99.90;;;;;;5016370;28;20054;-71
2023/06/22 03:25:10;;;;;;;59.42;34.30;;;16.30;99.90;;;;;;5016661;28;20049;-70
2023/06/22 03:27:43;;;;;;;59.33;36.25;;;16.30;99.90;;;;;;4982934;28;20053;-71
2023/06/22 03:30:11;;;;;;;58.30;34.38;;;16.30;99.90;;;;;;4998836;28;20389;-72
2023/06/22 03:32:36;;;;;;;57.20;34.83;;;16.30;99.90;;;;;;4998630;28;20508;-71
2023/06/22 03:35:02;;;;;;;63.23;36.83;;;16.30;99.90;;;;;;5016801;28;20050;-70
2023/06/22 03:37:29;;;;;;;61.15;36.22;;;16.30;99.90;;;;;;4999112;28;20048;-71
2023/06/22 03:39:55;;;;;;;64.28;36.03;;;16.30;99.90;;;;;;5016770;28;20053;-71
2023/06/22 03:42:21;;;;;;;53.35;34.03;;;16.20;99.90;;;;;;4998559;28;20053;-71
2023/06/22 03:44:47;;;;;;;57.27;34.80;;;16.30;99.90;;;;;;5015901;28;20053;-72
2023/06/22 03:47:13;;;;;;;59.78;35.03;;;16.30;99.90;;;;;;5015703;28;20077;-71
2023/06/22 03:49:39;;;;;;;66.00;36.27;;;16.30;99.90;;;;;;5015826;28;20185;-70
2023/06/22 03:52:05;;;;;;;66.03;36.20;;;16.30;99.90;;;;;;4998264;28;20843;-70
2023/06/22 03:54:31;;;;;;;59.83;36.50;;;16.30;99.90;;;;;;4998200;28;20062;-72
2023/06/22 03:56:58;;;;;;;66.03;36.92;;;16.30;99.90;;;;;;5015678;28;20054;-71
2023/06/22 03:59:24;;;;;;;61.92;35.45;;;16.20;99.90;;;;;;5015598;28;20046;-71
2023/06/22 04:01:50;;;;;;;59.60;36.65;;;16.20;99.90;;;;;;4981987;28;20050;-72
2023/06/22 04:04:17;;;;;;;62.15;36.85;;;16.20;99.90;;;;;;4997790;28;20386;-72
2023/06/22 04:06:43;;;;;;;67.45;37.45;;;16.20;99.90;;;;;;4998058;28;20077;-71
2023/06/22 04:09:08;;;;;;;64.60;36.80;;;16.10;99.90;;;;;;4997804;28;20077;-71
2023/06/22 04:11:34;;;;;;;66.25;38.80;;;16.20;99.90;;;;;;4998121;28;20050;-72
2023/06/22 04:14:00;;;;;;;58.77;35.50;;;16.20;99.90;;;;;;4981737;28;20478;-71
2023/06/22 04:16:26;;;;;;;56.72;34.58;;;16.20;99.90;;;;;;4997794;28;20042;-70
2023/06/22 04:18:51;;;;;;;63.83;37.40;;;16.30;99.90;;;;;;4997860;28;20061;-71
2023/06/22 04:21:19;;;;;;;62.45;35.20;;;16.30;99.90;;;;;;4997642;28;20374;-71
2023/06/22 04:23:46;;;;;;;54.63;34.67;;;16.30;99.90;;;;;;4997939;28;20058;-71
2023/06/22 04:26:13;;;;;;;61.17;35.75;;;16.40;99.90;;;;;;4997543;28;20050;-70
2023/06/22 04:28:39;;;;;;;62.65;38.00;;;16.40;99.90;;;;;;4981567;28;20052;-71
2023/06/22 04:31:04;;;;;;;61.20;35.10;;;16.40;99.90;;;;;;4997499;28;20058;-71
2023/06/22 04:33:30;;;;;;;56.65;34.53;;;16.50;99.90;;;;;;5014918;28;20056;-72
2023/06/22 04:36:03;;;;;;;57.03;34.70;;;16.50;99.90;;;;;;5014580;28;20510;-71
2023/06/22 04:38:33;;;;;;;56.45;34.35;;;16.60;99.90;;;;;;4982175;28;20393;-70
2023/06/22 04:40:58;;;;;;;57.38;34.28;;;16.60;99.90;;;;;;4982105;28;20053;-71
2023/06/22 04:43:24;;;;;;;55.95;35.42;;;16.60;99.90;;;;;;5014839;28;20049;-72
2023/06/22 04:45:52;;;;;;;61.83;36.10;;;16.60;99.90;;;;;;4997254;28;20100;-71
2023/06/22 04:48:17;;;;;;;60.78;37.45;;;16.70;99.90;;;;;;4981147;28;20056;-72
2023/06/22 04:50:44;;;;;;;61.30;37.33;;;16.70;99.90;;;;;;5014873;28;20125;-71
2023/06/22 04:53:12;;;;;;;63.67;36.75;;;16.70;99.90;;;;;;4996989;28;20054;-71
2023/06/22 04:55:41;;;;;;;66.43;37.15;;;16.70;99.90;;;;;;5014411;28;20058;-70
2023/06/22 04:58:07;;;;;;;60.17;36.58;;;16.70;99.90;;;;;;5015371;28;20085;-71
2023/06/22 05:00:36;;;;;;;66.22;40.13;;;16.70;99.90;;;;;;5014985;28;20050;-71
2023/06/22 05:03:03;;;;;;;63.47;37.67;;;16.70;99.90;;;;;;4997311;28;20221;-72
2023/06/22 05:05:29;;;;;;;60.22;36.72;;;16.80;99.90;;;;;;4980916;28;20050;-71
2023/06/22 05:07:59;;;;;;;61.25;38.35;;;16.70;99.90;;;;;;4996382;28;20088;-71
2023/06/22 05:10:25;;;;;;;58.92;34.97;;;16.70;99.90;;;;;;5014690;28;20052;-72
2023/06/22 05:12:51;;;;;;;61.72;36.95;;;16.80;99.90;;;;;;4996790;28;20041;-71
2023/06/22 05:15:19;;;;;;;59.72;36.38;;;16.90;99.90;;;;;;5013635;28;20504;-71
2023/06/22 05:17:45;;;;;;;63.08;36.83;;;17.00;99.90;;;;;;4997077;28;20045;-71
2023/06/22 05:20:12;;;;;;;59.77;35.20;;;17.10;99.90;;;;;;5014448;28;20456;-73
2023/06/22 05:22:39;;;;;;;59.55;36.50;;;17.20;99.90;;;;;;5014442;28;20220;-71
2023/06/22 05:25:08;;;;;;;53.70;33.65;;;17.30;99.90;;;;;;5014421;28;20453;-72
2023/06/22 05:27:39;;;;;;;62.80;33.85;;;17.40;99.90;;;;;;4996457;28;20041;-71
2023/06/22 05:30:08;;;;;;;55.13;33.78;;;17.50;99.90;;;;;;4997392;28;20120;-72
2023/06/22 05:32:34;;;;;;;48.80;32.30;;;17.50;99.90;;;;;;5014109;28;20046;-72
2023/06/22 05:35:00;;;;;;;49.03;31.90;;;17.60;99.90;;;;;;5013983;28;20131;-72
2023/06/22 05:37:26;;;;;;;46.73;29.77;;;17.70;99.90;;;;;;4996255;28;20446;-72
2023/06/22 05:39:52;;;;;;;47.03;29.70;;;17.80;99.90;;;;;;5015252;28;20058;-70
2023/06/22 05:42:18;;;;;;;48.75;32.20;;;17.80;99.90;;;;;;5015084;28;20085;-72
2023/06/22 05:44:43;;;;;;;48.63;32.42;;;17.80;99.90;;;;;;5013806;28;20076;-71
2023/06/22 05:47:09;;;;;;;49.42;29.75;;;17.90;99.90;;;;;;5015023;28;20478;-71
2023/06/22 05:49:35;;;;;;;48.87;31.97;;;18.00;99.90;;;;;;4998020;28;20536;-72
2023/06/22 05:52:00;;;;;;;46.50;31.23;;;18.10;99.90;;;;;;5014467;28;20050;-71
2023/06/22 05:54:29;;;;;;;48.20;31.10;;;18.20;99.90;;;;;;4995828;28;20107;-71
2023/06/22 05:56:55;;;;;;;52.20;30.67;;;18.10;99.90;;;;;;4995923;28;20057;-70
2023/06/22 05:59:21;;;;;;;49.43;33.67;;;18.10;99.90;;;;;;4996005;28;20050;-72
2023/06/22 06:01:50;;;;;;;46.13;31.40;;;18.10;99.90;;;;;;4996015;28;20093;-71
2023/06/22 06:04:18;;;;;;;48.28;31.10;;;18.20;99.90;;;;;;5013530;28;20089;-71
2023/06/22 06:06:44;;;;;;;43.05;29.65;;;18.20;99.90;;;;;;4996338;28;20073;-72
2023/06/22 06:09:11;;;;;;;43.33;28.97;;;18.30;99.90;;;;;;4995941;28;20479;-70
2023/06/22 06:11:37;;;;;;;43.17;28.45;;;18.50;99.90;;;;;;5013942;28;20061;-71
2023/06/22 06:14:03;;;;;;;44.28;27.83;;;18.50;99.90;;;;;;4996480;28;20139;-70
2023/06/22 06:16:29;;;;;;;37.10;24.90;;;18.60;99.90;;;;;;5013483;28;20073;-73
2023/06/22 06:18:55;;;;;;;36.30;26.33;;;18.80;99.90;;;;;;5013430;28;20058;-71
2023/06/22 06:21:22;;;;;;;37.35;24.13;;;18.90;99.90;;;;;;4995566;28;20504;-71
2023/06/22 06:23:47;;;;;;;34.75;23.50;;;19.00;99.90;;;;;;4996386;28;20050;-70
2023/06/22 06:26:16;;;;;;;36.10;22.87;;;19.10;99.90;;;;;;5016149;28;20049;-74
2023/06/22 06:28:42;;;;;;;32.30;23.05;;;19.20;99.90;;;;;;5017595;28;20049;-71
2023/06/22 06:31:08;;;;;;;33.58;23.65;;;19.30;99.90;;;;;;5000140;28;20064;-71
2023/06/22 06:33:35;;;;;;;29.90;20.80;;;19.40;99.90;;;;;;5017241;28;20490;-71
2023/06/22 06:36:03;;;;;;;28.10;19.98;;;19.50;99.90;;;;;;5000428;28;20050;-71
2023/06/22 06:38:30;;;;;;;29.67;20.15;;;19.60;99.90;;;;;;4999849;28;20469;-72
2023/06/22 06:40:55;;;;;;;;;;;19.80;99.90;;;;;;5000342;28;20081;-71
2023/06/22 06:43:21;;;;;;;26.87;17.93;;;19.90;99.90;;;;;;5017196;28;19922;-71
2023/06/22 06:45:47;;;;;;;26.80;18.60;;;20.20;99.90;;;;;;4999902;28;20133;-70
2023/06/22 06:48:13;;;;;;;26.27;17.60;;;20.30;99.90;;;;;;4999889;28;20069;-77
2023/06/22 06:50:38;;;;;;;24.60;17.73;;;20.20;99.90;;;;;;4999933;28;20195;-71
2023/06/22 06:53:05;;;;;;;25.33;16.83;;;20.30;99.90;;;;;;4999446;28;20049;-75
2023/06/22 06:55:32;;;;;;;25.20;17.80;;;20.30;99.90;;;;;;4999235;28;20062;-71
2023/06/22 06:57:59;;;;;;;24.30;16.42;;;20.20;99.90;;;;;;4984068;28;20042;-70
2023/06/22 07:00:25;;;;;;;;;;;20.40;99.90;;;;;;5017309;28;20093;-71
2023/06/22 07:02:51;;;;;;;23.10;15.07;;;20.50;99.90;;;;;;5016659;28;19928;-71
2023/06/22 07:05:17;;;;;;;23.70;14.93;;;20.60;99.90;;;;;;5016387;28;20050;-70
2023/06/22 07:07:43;;;;;;;20.93;14.53;;;20.70;99.90;;;;;;4999565;28;20484;-72
2023/06/22 07:10:09;;;;;;;21.50;14.47;;;20.80;99.90;;;;;;5016629;28;20108;-71
2023/06/22 07:12:35;;;;;;;21.95;14.43;;;21.00;99.90;;;;;;5016385;28;20038;-70
2023/06/22 07:15:07;;;;;;;20.77;14.15;;;21.10;99.90;;;;;;4982938;28;20085;-70
2023/06/22 07:17:34;;;;;;;19.02;12.75;;;21.20;99.90;;;;;;5016949;28;20412;-71
2023/06/22 07:20:01;;;;;;;17.67;12.38;;;21.20;99.90;;;;;;5016432;28;20050;-70
2023/06/22 07:22:26;;;;;;;19.90;12.32;;;21.10;99.90;;;;;;4998427;28;20085;-71
2023/06/22 07:24:58;;;;;;;16.92;10.50;;;21.20;99.90;;;;;;5016042;28;20088;-72
2023/06/22 07:27:25;;;;;;;17.05;10.05;;;21.30;99.90;;;;;;4999259;28;20046;-71
2023/06/22 07:29:50;;;;;;;17.27;9.88;;;21.30;99.90;;;;;;4999072;28;20061;-69
2023/06/22 07:32:16;;;;;;;17.07;9.87;;;21.40;99.90;;;;;;5015959;28;20444;-70
2023/06/22 07:34:43;;;;;;;17.60;10.27;;;21.50;99.90;;;;;;4998506;28;20548;-70
2023/06/22 07:37:09;;;;;;;13.43;9.63;;;21.50;99.90;;;;;;5015144;28;20090;-70
2023/06/22 07:39:35;;;;;;;15.63;10.40;;;21.60;99.90;;;;;;4998376;28;20053;-69
2023/06/22 07:42:00;;;;;;;18.30;10.03;;;21.60;99.90;;;;;;4998054;28;20050;-70
2023/06/22 07:44:26;;;;;;;16.13;10.07;;;21.60;99.90;;;;;;4997845;28;20041;-71
2023/06/22 07:46:52;;;;;;;14.43;10.07;;;21.60;99.90;;;;;;5015972;28;20084;-74
2023/06/22 07:49:17;;;;;;;14.13;9.77;;;21.70;99.90;;;;;;5015747;28;20058;-70
2023/06/22 07:51:43;;;;;;;14.50;10.10;;;21.80;99.90;;;;;;4998257;28;20046;-70
2023/06/22 07:54:09;;;;;;;15.67;10.63;;;21.80;99.90;;;;;;5015310;28;20493;-70
2023/06/22 07:56:37;;;;;;;16.17;8.77;;;21.90;99.90;;;;;;4997378;28;20489;-70
2023/06/22 07:59:03;;;;;;;15.23;9.15;;;22.00;99.90;;;;;;4998122;28;20053;-70
2023/06/22 08:01:29;;;;;;;12.55;8.75;;;22.00;99.90;;;;;;5015304;28;20042;-71
2023/06/22 08:03:55;;;;;;;18.05;10.10;;;22.10;99.90;;;;;;4981969;28;20134;-69
2023/06/22 08:06:21;;;;;;;13.07;9.20;;;22.20;99.90;;;;;;4981851;28;20129;-72
2023/06/22 08:08:48;;;;;;;17.43;8.63;;;22.30;99.90;;;;;;4998022;28;20046;-70
2023/06/22 08:11:14;;;;;;;13.93;8.00;;;22.40;99.90;;;;;;4982856;28;20049;-70
2023/06/22 08:13:40;;;;;;;16.03;8.80;;;22.40;99.90;;;;;;4981496;28;20401;-71
2023/06/22 08:16:07;;;;;;;14.63;9.17;;;22.50;99.90;;;;;;4997601;28;20053;-70
2023/06/22 08:18:33;;;;;;;14.75;9.95;;;22.50;99.90;;;;;;5015067;28;20046;-71
2023/06/22 08:20:59;;;;;;;16.00;9.20;;;22.50;99.90;;;;;;5015048;28;20065;-72
2023/06/22 08:23:24;;;;;;;12.83;8.23;;;22.60;99.90;;;;;;5015005;28;20049;-78
2023/06/22 08:25:50;;;;;;;12.90;8.27;;;22.60;99.90;;;;;;4997403;28;20045;-70
2023/06/22 08:28:16;;;;;;;13.83;8.03;;;22.60;99.90;;;;;;5014899;28;20362;-72
2023/06/22 08:30:42;;;;;;;12.70;8.43;;;22.70;99.90;;;;;;4997914;28;20108;-69
2023/06/22 08:33:07;;;;;;;12.87;7.93;;;22.70;99.90;;;;;;4980429;28;20321;-70
2023/06/22 08:35:33;;;;;;;12.23;7.97;;;22.80;99.90;;;;;;5014137;28;20088;-71
2023/06/22 08:37:59;;;;;;;13.47;8.37;;;22.80;99.90;;;;;;4997504;28;20065;-71
2023/06/22 08:40:25;;;;;;;14.80;9.80;;;22.80;99.90;;;;;;4997140;28;20050;-69
2023/06/22 08:42:51;;;;;;;12.82;8.00;;;22.90;99.90;;;;;;4997001;28;20050;-70
2023/06/22 08:45:17;;;;;;;13.80;8.82;;;23.00;99.90;;;;;;5014537;28;20057;-71
2023/06/22 08:47:43;;;;;;;14.90;8.70;;;23.00;99.90;;;;;;4996793;28;20046;-69
2023/06/22 08:50:10;;;;;;;12.77;8.27;;;23.00;99.90;;;;;;4980424;28;20077;-69
2023/06/22 08:52:37;;;;;;;11.82;8.50;;;23.10;99.90;;;;;;4996830;28;20120;-70
2023/06/22 08:55:07;;;;;;;11.40;7.65;;;23.20;99.90;;;;;;5014672;28;20128;-70
2023/06/22 08:57:33;;;;;;;;;;;23.40;99.90;;;;;;5013822;28;20046;-70
2023/06/22 08:59:59;;;;;;;14.95;8.07;;;23.50;99.90;;;;;;5013996;28;19928;-68
2023/06/22 09:02:30;;;;;;;11.88;7.53;;;23.50;99.90;;;;;;5014430;28;20054;-69
2023/06/22 09:04:57;;;;;;;13.95;8.10;;;23.50;99.90;;;;;;4996532;28;20489;-70
2023/06/22 09:07:24;;;;;;;11.05;7.88;;;23.60;99.90;;;;;;5014199;28;20100;-69
2023/06/22 09:09:50;;;;;;;11.15;7.55;;;23.60;99.90;;;;;;5013878;28;20451;-69
2023/06/22 09:12:19;;;;;;;13.35;8.75;;;23.50;99.90;;;;;;4996542;28;20439;-71
2023/06/22 09:14:46;;;;;;;12.20;8.20;;;23.70;99.90;;;;;;5013469;28;20512;-70
2023/06/22 09:17:13;;;;;;;11.82;7.53;;;23.70;99.90;;;;;;5014054;28;20057;-69
2023/06/22 09:19:39;;;;;;;11.90;7.38;;;23.90;99.90;;;;;;4996684;28;20046;-69
2023/06/22 09:22:06;;;;;;;13.57;8.15;;;24.00;99.90;;;;;;4980483;28;20103;-70
2023/06/22 09:24:32;;;;;;;14.90;8.55;;;24.10;99.90;;;;;;4996665;28;20092;-73
2023/06/22 09:26:58;;;;;;;17.08;8.85;;;24.00;99.90;;;;;;4996603;28;20056;-69
2023/06/22 09:29:24;;;;;;;15.77;9.10;;;24.00;99.90;;;;;;4996358;28;20049;-70
2023/06/22 09:31:50;;;;;;;13.82;8.48;;;24.00;99.90;;;;;;4996231;28;20077;-70
2023/06/22 09:34:20;;;;;;;13.97;8.50;;;23.90;99.90;;;;;;4996575;28;20134;-69
2023/06/22 09:36:46;;;;;;;13.15;9.38;;;23.90;99.90;;;;;;5014427;28;20062;-69
2023/06/22 09:39:12;;;;;;;15.52;8.65;;;23.80;99.90;;;;;;4996763;28;20049;-69
2023/06/22 09:41:37;;;;;;;14.83;7.83;;;24.00;99.90;;;;;;4996580;28;20046;-69
2023/06/22 09:44:03;;;;;;;11.70;7.80;;;24.10;99.90;;;;;;5013870;28;20096;-69
2023/06/22 09:46:29;;;;;;;14.40;8.48;;;24.30;99.90;;;;;;5013700;28;20054;-69
2023/06/22 09:48:55;;;;;;;14.67;8.40;;;24.50;99.90;;;;;;4996176;28;20046;-70
2023/06/22 09:51:21;;;;;;;12.52;7.70;;;24.50;99.90;;;;;;4996725;28;20300;-69
2023/06/22 09:53:47;;;;;;;13.35;8.02;;;24.70;99.90;;;;;;5013708;28;20054;-69
2023/06/22 09:56:16;;;;;;;14.77;7.70;;;24.80;99.90;;;;;;5013631;28;20097;-69
2023/06/22 09:58:43;;;;;;;15.40;8.43;;;24.90;99.90;;;;;;4996315;28;20053;-68
2023/06/22 10:01:09;;;;;;;;;;;25.00;99.90;;;;;;5013676;28;20054;-68
2023/06/22 10:03:35;;;;;;;12.40;8.20;;;25.20;99.90;;;;;;5013625;28;19948;-70
2023/06/22 10:06:02;;;;;;;10.57;7.82;;;25.40;99.90;;;;;;5013546;28;20293;-70
2023/06/22 10:08:27;;;;;;;10.93;7.32;;;25.60;99.90;;;;;;5013641;28;20066;-69
2023/06/22 10:10:53;;;;;;;12.90;7.10;;;25.70;99.90;;;;;;4995944;28;20137;-69
2023/06/22 10:13:19;;;;;;;10.73;6.43;;;25.80;99.90;;;;;;4995977;28;20092;-68
2023/06/22 10:15:51;;;;;;;10.77;7.57;;;25.90;99.90;;;;;;5013745;28;20342;-71
2023/06/22 10:18:17;;;;;;;11.80;6.80;;;25.90;99.90;;;;;;4996955;28;20054;-68
2023/06/22 10:20:43;;;;;;;12.50;8.25;;;25.90;99.90;;;;;;4996710;28;20053;-69
2023/06/22 10:23:09;;;;;;;12.93;7.38;;;25.90;99.90;;;;;;5014021;28;20469;-69
2023/06/22 10:25:34;;;;;;;9.93;6.40;;;25.80;99.90;;;;;;4996645;28;20052;-69
2023/06/22 10:28:00;;;;;;;10.00;6.47;;;25.50;99.90;;;;;;5013274;28;20128;-70
2023/06/22 10:30:26;;;;;;;13.63;7.10;;;25.50;99.90;;;;;;4995507;28;20068;-69
2023/06/22 10:32:52;;;;;;;10.45;7.18;;;25.70;99.90;;;;;;4995806;28;20053;-71
2023/06/22 10:35:17;;;;;;;10.60;6.60;;;25.80;99.90;;;;;;5013331;28;20046;-69
2023/06/22 10:37:44;;;;;;;9.75;6.75;;;25.60;99.90;;;;;;4996010;28;20046;-69
2023/06/22 10:40:12;;;;;;;9.75;6.32;;;25.30;99.90;;;;;;4980118;28;20141;-68
2023/06/22 10:42:38;;;;;;;11.20;6.53;;;25.60;99.90;;;;;;5013349;28;20089;-70
2023/06/22 10:45:04;;;;;;;9.95;6.78;;;25.60;99.90;;;;;;4995927;28;20088;-69
2023/06/22 10:47:30;;;;;;;10.60;6.70;;;25.90;99.90;;;;;;4979556;28;20046;-71
2023/06/22 10:49:58;;;;;;;10.17;6.20;;;25.90;99.90;;;;;;5013957;28;20056;-70
2023/06/22 10:52:24;;;;;;;14.02;6.65;;;26.10;99.90;;;;;;4996128;28;20490;-70
2023/06/22 10:54:50;;;;;;;9.67;5.77;;;26.20;99.90;;;;;;5013519;28;20092;-69
2023/06/22 10:57:15;;;;;;;9.52;6.22;;;25.90;99.90;;;;;;5012932;28;20648;-70
2023/06/22 10:59:41;;;;;;;8.93;5.15;;;26.30;99.90;;;;;;5012665;28;20106;-70
2023/06/22 11:02:07;;;;;;;8.77;5.60;;;26.30;99.90;;;;;;4995442;28;20045;-71
2023/06/22 11:04:32;;;;;;;15.47;6.10;;;26.50;99.90;;;;;;5013454;28;20045;-72
2023/06/22 11:06:58;;;;;;;10.60;6.00;;;26.60;99.90;;;;;;4995572;28;20113;-70
2023/06/22 11:09:24;;;;;;;12.27;5.33;;;26.50;99.90;;;;;;4995656;28;20293;-69
2023/06/22 11:11:54;;;;;;;7.18;4.45;;;26.60;99.90;;;;;;4980339;28;20054;-70
2023/06/22 11:14:20;;;;;;;10.00;5.68;;;26.60;99.90;;;;;;4999390;28;20048;-70
2023/06/22 11:16:46;;;;;;;9.52;5.75;;;26.40;99.90;;;;;;5016480;28;20057;-70
2023/06/22 11:19:12;;;;;;;10.95;5.00;;;26.50;99.90;;;;;;4999147;28;20062;-70
2023/06/22 11:21:38;;;;;;;9.13;5.00;;;26.30;99.90;;;;;;5016512;28;20126;-69
2023/06/22 11:24:04;;;;;;;8.23;4.70;;;26.50;99.90;;;;;;5016270;28;20049;-68
2023/06/22 11:26:31;;;;;;;6.53;4.07;;;26.60;99.90;;;;;;4998791;28;20116;-69
2023/06/22 11:28:58;;;;;;;9.07;4.65;;;26.60;99.90;;;;;;5016138;28;20045;-69
2023/06/22 11:31:24;;;;;;;7.80;4.32;;;26.00;99.90;;;;;;4998663;28;20057;-69
2023/06/22 11:33:49;;;;;;;7.65;4.05;;;26.30;99.90;;;;;;5016133;28;20460;-69
2023/06/22 11:36:16;;;;;;;12.80;6.15;;;26.10;99.90;;;;;;4998585;28;20050;-69
2023/06/22 11:38:42;;;;;;;7.13;4.03;;;26.30;99.90;;;;;;4998592;28;20123;-70
2023/06/22 11:41:08;;;;;;;;;;;26.10;99.90;;;;;;4999136;28;20085;-70
2023/06/22 11:43:34;;;;;;;8.75;4.80;;;26.00;99.90;;;;;;5016764;28;19976;-70
2023/06/22 11:46:02;;;;;;;16.75;5.40;;;26.00;99.90;;;;;;5016546;28;20056;-69
2023/06/22 11:48:28;;;;;;;9.75;4.40;;;26.10;99.90;;;;;;4998498;28;20041;-70
2023/06/22 11:50:54;;;;;;;9.27;4.73;;;25.90;99.90;;;;;;5015751;28;20577;-69
2023/06/22 11:53:21;;;;;;;8.63;5.88;;;26.20;99.90;;;;;;4999300;28;20049;-71
2023/06/22 11:55:47;;;;;;;9.05;5.55;;;26.40;99.90;;;;;;4998284;28;20058;-72
2023/06/22 11:58:16;;;;;;;8.20;4.50;;;26.40;99.90;;;;;;5016158;28;20050;-69
2023/06/22 12:00:42;;;;;;;11.43;5.50;;;26.30;99.90;;;;;;5016311;28;20132;-68
2023/06/22 12:03:09;;;;;;;7.17;4.33;;;26.40;99.90;;;;;;4998206;28;20085;-70
2023/06/22 12:05:35;;;;;;;8.50;4.75;;;26.60;99.90;;;;;;4999019;28;20053;-70
2023/06/22 12:08:01;;;;;;;6.78;4.30;;;26.60;99.90;;;;;;5015273;28;20470;-69
2023/06/22 12:10:28;;;;;;;9.48;5.55;;;26.30;99.90;;;;;;5015927;28;20088;-71
2023/06/22 12:12:54;;;;;;;10.05;5.43;;;26.10;99.90;;;;;;5015066;28;20516;-69
2023/06/22 12:15:20;;;;;;;9.32;5.22;;;26.10;99.90;;;;;;5015482;28;20050;-70
2023/06/22 12:17:47;;;;;;;11.18;6.03;;;26.20;99.90;;;;;;5015013;28;20042;-70
2023/06/22 12:20:13;;;;;;;9.93;5.75;;;25.90;99.90;;;;;;5015143;28;20105;-70
2023/06/22 12:22:41;;;;;;;9.98;6.20;;;26.30;99.90;;;;;;4997473;28;20042;-71
2023/06/22 12:25:08;;;;;;;11.07;6.72;;;25.90;99.90;;;;;;4997505;28;20148;-69
2023/06/22 12:27:35;;;;;;;9.07;6.15;;;25.90;99.90;;;;;;5015147;28;20050;-71
2023/06/22 12:30:00;;;;;;;;;;;26.10;99.90;;;;;;5015793;28;20470;-70
2023/06/22 12:32:26;;;;;;;;;;;25.80;99.90;;;;;;4981820;28;19921;-70
2023/06/22 12:34:52;;;;;;;10.20;6.37;;;25.90;99.90;;;;;;5015196;28;19925;-70
2023/06/22 12:37:18;;;;;;;10.43;6.60;;;26.10;99.90;;;;;;4981729;28;20288;-68
2023/06/22 12:39:44;;;;;;;11.60;6.40;;;26.10;99.90;;;;;;4981446;28;20053;-71